Nearby METAR Reports

 

KGRB - Ashwaubenon, Wisconsin, USA
Distance from station: NW 5mi, 8km
Updated: Thu, 26-May-2022 3:53pm CDT
Overcast
Overcast
 Wind from WNW
Wind: WNW 6 mph , 9 km/h
Temperature: 70°F , 21°C
Dew Point: 61°F , 16°C
Humidity: 73%
Barometer: 29.76 inHg , 1007.8 hPa
Clouds: Overcast
Visibility: 10 miles , 16 km
Cloud details: Overcast 2400 ft
2022/05/26 20:53 KGRB 262053Z 30005KT 10SM OVC024 21/16 A2976 RMK AO2 SLP079 T02110156 56002
KATW - Appleton/Outagam, Wisconsin, USA
Distance from station: WSW 26mi, 42km
Updated: Thu, 26-May-2022 3:45pm CDT
Mostly cloudy
Mostly cloudy
 Wind from WNW
Wind: WNW 6 mph , 9 km/h
Temperature: 70°F , 21°C
Dew Point: 59°F , 15°C
Humidity: 69%
Barometer: 29.75 inHg , 1007.5 hPa
Clouds: Mostly cloudy
Visibility: 10 miles , 16 km
Cloud details: Mostly cloudy 2200 ft
2022/05/26 20:45 KATW 262045Z 30005KT 10SM BKN022 21/15 A2975
 
KMTW - Manitowac Muni, Wisconsin, USA
Distance from station: SE 29mi, 47km
Updated: Thu, 26-May-2022 4:28pm CDT
Overcast
Overcast
 Wind from E
Wind: E 7 mph , 11 km/h
Temperature: 63°F , 17°C
Dew Point: 63°F , 17°C
Humidity: 100%
Barometer: 29.75 inHg , 1007.5 hPa
Clouds: Overcast
Visibility: 10 miles , 16 km
Cloud details: Mostly cloudy 2600 ft
Mostly cloudy 3000 ft
Overcast 4900 ft
2022/05/26 21:28 KMTW 262128Z AUTO 08006KT 10SM BKN026 BKN030 OVC049 17/17 A2975 RMK AO2 RAB2059E24 P0000
KOCQ - Oconto, Wisconsin, USA
Distance from station: NNE 30mi, 49km
Updated: Thu, 26-May-2022 4:15pm CDT
Overcast
Overcast
 Wind from NW
Wind: NW 5 mph , 7 km/h
Temperature: 63°F , 17°C
Dew Point: 61°F , 16°C
Humidity: 94%
Barometer: 29.77 inHg , 1008.1 hPa
Clouds: Overcast
Visibility: 10 miles , 16 km
Cloud details: Overcast 1000 ft
2022/05/26 21:15 KOCQ 262115Z AUTO 32004KT 10SM OVC010 17/16 A2977 RMK AO1 T01670155
 
KEZS - Shawano Muni, Wisconsin, USA
Distance from station: NW 35mi, 56km
Updated: Thu, 26-May-2022 4:35pm CDT
Overcast
Overcast
 Wind from NNW
Wind: NNW 9 mph , 15 km/h
Temperature: 63°F , 17°C
Dew Point: 61°F , 16°C
Humidity: 94%
Barometer: 29.77 inHg , 1008.1 hPa
Clouds: Overcast
Visibility: 10 miles , 16 km
Cloud details: Overcast 800 ft
2022/05/26 21:35 KEZS 262135Z AUTO 34008KT 10SM OVC008 17/16 A2977 RMK AO2 T01740160
KCLI - Clintonville, Wisconsin, USA
Distance from station: WNW 36mi, 58km
Updated: Wed, 27-Apr-2022 2:55am CDT
NOT Current
Clear
Clear
 Wind from N
Wind: N 3 mph , 6 km/h
Temperature: 28°F , -2°C
Dew Point: 16°F , -9°C
Humidity: 59%
Barometer: 30.36 inHg , 1028.1 hPa
Clouds: Clear
Visibility: 10 miles , 16 km
2022/04/27 07:55 KCLI 270755Z AUTO 36003KT 10SM CLR M02/M09 A3036 RMK AO2
 
KOSH - Oshkosh, Wisconsin, USA
Distance from station: SW 41mi, 66km
Updated: Thu, 26-May-2022 3:53pm CDT
Overcast
Overcast
 Wind from NNW
Wind: NNW 8 mph , 13 km/h
Temperature: 70°F , 21°C
Dew Point: 63°F , 17°C
Humidity: 78%
Barometer: 29.75 inHg , 1007.5 hPa
Clouds: Overcast
Visibility: 10 miles , 16 km
Cloud details: Mostly cloudy 2100 ft
Overcast 2700 ft
2022/05/26 20:53 KOSH 262053Z 34007KT 10SM BKN021 OVC027 21/17 A2975 RMK AO2 SLP064 T02060167 56004
KSUE - Sturgeon Bay, Wisconsin, USA
Distance from station: NE 42mi, 68km
Updated: Thu, 26-May-2022 3:56pm CDT
Overcast
Overcast
 Wind from N
Wind: N 5 mph , 7 km/h
Temperature: 59°F , 15°C
Dew Point: 55°F , 13°C
Humidity: 88%
Barometer: 29.79 inHg , 1008.8 hPa
Clouds: Overcast
Visibility: 10 miles , 16 km
Cloud details: Overcast 1000 ft
2022/05/26 20:56 KSUE 262056Z AUTO 36004KT 10SM OVC010 15/13 A2979 RMK AO2 SLP087 T01500133 50004
 
KSBM - Sheboygan, Wisconsin, USA
Distance from station: SSE 46mi, 75km
Updated: Thu, 26-May-2022 3:53pm CDT
Mostly cloudy
Mostly cloudy
 Wind from S
Wind: S 9 mph , 15 km/h
Temperature: 70°F , 21°C
Dew Point: 66°F , 19°C
Humidity: 88%
Barometer: 29.75 inHg , 1007.5 hPa
Clouds: Mostly cloudy
Visibility: 7 miles , 11 km
Cloud details: Mostly cloudy 12000 ft
2022/05/26 20:53 KSBM 262053Z AUTO 18008KT 7SM BKN120 21/19 A2975 RMK AO2 SLP071 T02110189 58005
KPCZ - Waupaca, Wisconsin, USA
Distance from station: W 48mi, 77km
Updated: Thu, 26-May-2022 4:35pm CDT
Overcast
Overcast
 Wind from NNW
Wind: NNW 8 mph , 13 km/h
Temperature: 66°F , 19°C
Dew Point: 59°F , 15°C
Humidity: 78%
Barometer: 29.77 inHg , 1008.1 hPa
Clouds: Overcast
Visibility: 10 miles , 16 km
Cloud details: Mostly cloudy 2000 ft
Overcast 2600 ft
2022/05/26 21:35 KPCZ 262135Z AUTO 34007KT 10SM BKN020 OVC026 19/15 A2977 RMK AO2 T01910148 PWINO